createdAt,value
2022-08-17T00:07:01.087Z,1.00
2022-08-17T04:30:27.760Z,11.00
2022-08-17T04:33:18.280Z,11.00
2022-08-17T04:36:11.575Z,12.50
2022-08-17T04:39:00.382Z,12.50
2022-08-17T04:42:17.107Z,13.10
2022-08-17T04:45:06.382Z,13.50
2022-08-17T04:47:56.534Z,15.10
2022-08-17T04:50:52.502Z,16.20
2022-08-17T04:53:49.087Z,17.50
2022-08-17T04:56:57.726Z,17.80
2022-08-17T05:03:07.771Z,19.10
2022-08-17T05:05:56.586Z,19.30
2022-08-17T05:09:01.977Z,18.90
2022-08-17T05:11:50.701Z,18.60
2022-08-17T05:14:40.588Z,20.50
2022-08-17T05:17:29.479Z,21.30
2022-08-17T05:20:30.128Z,20.50
2022-08-17T05:23:26.116Z,22.30
2022-08-17T05:26:26.711Z,23.50
2022-08-17T05:29:35.617Z,24.10
2022-08-17T05:32:40.366Z,25.20
2022-08-17T05:35:44.645Z,25.30
2022-08-17T05:38:36.274Z,25.10
2022-08-17T05:41:33.719Z,23.40
2022-08-17T05:44:28.583Z,23.10
2022-08-17T05:47:28.898Z,23.10
2022-08-17T05:50:27.116Z,22.80
2022-08-17T05:53:41.367Z,22.40
2022-08-17T05:57:10.398Z,21.40
2022-08-17T06:00:13.833Z,23.20
2022-08-17T06:03:39.671Z,23.10
2022-08-17T06:06:41.477Z,21.30
2022-08-17T06:09:42.947Z,19.50
2022-08-17T06:16:58.711Z,17.70
2022-08-17T06:19:55.934Z,16.40
2022-08-17T06:22:49.644Z,15.70
2022-08-17T06:25:46.884Z,15.50
2022-08-17T06:28:42.645Z,15.30
2022-08-17T06:31:38.555Z,14.90
2022-08-17T06:34:27.400Z,15.30
2022-08-17T06:37:39.266Z,16.00
2022-08-17T06:41:06.203Z,17.10
2022-08-17T06:44:11.079Z,18.60
2022-08-17T06:47:06.984Z,17.40
2022-08-17T06:50:03.887Z,17.20
2022-08-17T06:52:58.828Z,14.70
2022-08-17T06:55:53.650Z,14.40
2022-08-17T06:58:45.446Z,12.90
2022-08-17T07:01:37.658Z,11.60
2022-08-17T07:04:32.328Z,11.30
2022-08-17T07:07:40.039Z,10.80
2022-08-17T07:10:30.721Z,11.00
2022-08-17T07:13:29.656Z,11.70
2022-08-17T07:16:26.078Z,10.80
2022-08-17T07:19:16.883Z,10.70
2022-08-17T07:22:18.131Z,11.10
2022-08-17T07:25:10.845Z,11.70
2022-08-17T07:28:08.466Z,12.50
2022-08-17T07:31:05.557Z,14.70
2022-08-17T08:03:21.802Z,72.60
2022-08-17T08:33:52.845Z,78.00
2022-08-17T08:37:15.892Z,78.00
2022-08-17T08:40:12.986Z,74.90
2022-08-17T08:43:13.744Z,73.30
2022-08-17T09:45:42.747Z,3.10
2022-08-17T09:48:38.677Z,3.30
2022-08-17T09:51:35.585Z,2.80
2022-08-17T11:11:18.219Z,1.00
2022-08-17T11:23:21.303Z,1.00
2022-08-17T11:44:40.620Z,1.00
2022-08-17T11:58:43.485Z,1.00
2022-08-17T12:05:49.495Z,1.00
2022-08-17T12:08:43.548Z,1.00
2022-08-17T12:12:11.140Z,1.00
2022-08-17T12:15:10.214Z,1.00
2022-08-17T12:18:53.980Z,1.00
2022-08-17T12:30:19.529Z,1.00
2022-08-17T12:33:25.332Z,1.00
2022-08-17T12:36:26.626Z,1.00
2022-08-17T12:39:29.465Z,1.00
2022-08-17T12:42:25.572Z,1.00
2022-08-17T12:45:25.209Z,1.00
2022-08-17T12:48:24.351Z,1.00
2022-08-17T12:51:14.226Z,1.00
2022-08-17T12:54:03.805Z,1.00
2022-08-17T12:56:54.155Z,1.00
2022-08-17T12:59:46.427Z,1.00
2022-08-17T13:02:45.273Z,1.00
2022-08-17T13:05:37.440Z,1.00
2022-08-17T13:08:30.721Z,1.00
2022-08-17T13:15:59.601Z,1.00
2022-08-17T13:19:50.302Z,1.00
2022-08-17T13:22:40.071Z,1.00
2022-08-17T13:25:31.139Z,1.00
2022-08-17T13:28:30.755Z,1.00
2022-08-17T13:31:42.840Z,1.00
2022-08-17T13:35:12.574Z,1.00
2022-08-17T13:38:01.429Z,1.00
2022-08-17T13:40:53.426Z,1.00
2022-08-17T13:43:46.086Z,1.00
2022-08-17T13:46:35.985Z,1.00
2022-08-17T13:49:24.979Z,1.00
2022-08-17T13:52:40.108Z,1.00
2022-08-17T13:55:32.280Z,1.00
2022-08-17T13:58:24.124Z,1.00
2022-08-17T14:01:31.906Z,1.00
2022-08-17T14:04:24.152Z,1.00
2022-08-17T14:07:31.144Z,1.00
2022-08-17T14:10:21.396Z,1.00
2022-08-17T14:13:10.189Z,1.00
2022-08-17T14:15:58.883Z,1.00
2022-08-17T14:18:56.669Z,1.00
2022-08-17T14:21:47.832Z,1.00
2022-08-17T14:24:44.593Z,1.00
2022-08-17T14:27:41.743Z,1.00
2022-08-17T14:30:42.401Z,1.00
2022-08-17T14:33:31.222Z,1.00
2022-08-17T14:36:19.930Z,1.00
2022-08-17T14:39:09.072Z,1.00
2022-08-17T14:42:02.760Z,1.00
2022-08-17T14:44:53.152Z,1.00
2022-08-17T14:47:42.984Z,1.00
2022-08-17T14:50:35.271Z,1.00
2022-08-17T14:53:24.447Z,1.00
2022-08-17T14:56:13.467Z,1.00
2022-08-17T14:59:02.368Z,1.00
2022-08-17T15:01:52.631Z,1.00
2022-08-17T15:04:45.575Z,1.00
2022-08-17T15:07:34.624Z,1.00
2022-08-17T15:10:25.871Z,1.00
2022-08-17T15:13:20.026Z,1.00
2022-08-17T15:16:13.780Z,1.00
2022-08-17T15:19:03.982Z,1.00
2022-08-17T15:21:52.836Z,1.00
2022-08-17T15:24:41.595Z,1.00
2022-08-17T15:27:32.743Z,1.00
2022-08-17T15:30:22.198Z,1.00
2022-08-17T15:33:16.264Z,1.00
2022-08-17T15:36:08.446Z,1.00
2022-08-17T15:38:58.842Z,1.00
2022-08-17T15:41:58.049Z,1.00
2022-08-17T15:44:47.625Z,1.00
2022-08-17T15:47:37.095Z,1.00
2022-08-17T15:50:25.813Z,1.00
2022-08-17T15:53:15.971Z,1.00
2022-08-17T15:56:05.383Z,1.00
2022-08-17T15:58:55.686Z,1.00
2022-08-17T16:03:01.655Z,1.00
2022-08-17T16:04:53.658Z,1.00
2022-08-17T16:07:43.027Z,1.00
2022-08-17T16:10:35.588Z,1.00
2022-08-17T16:13:24.795Z,1.00
2022-08-17T16:16:13.542Z,1.00
2022-08-17T16:19:02.466Z,1.00
2022-08-17T16:21:51.191Z,1.00
2022-08-17T16:24:47.751Z,1.00
2022-08-17T16:27:49.466Z,1.00
2022-08-17T16:30:38.758Z,1.00
2022-08-17T16:33:27.528Z,1.00
2022-08-17T16:36:16.861Z,1.00
2022-08-17T16:39:05.855Z,1.00
2022-08-17T16:41:54.627Z,1.00
2022-08-17T16:44:44.785Z,1.00
2022-08-17T16:47:33.608Z,1.00
2022-08-17T16:50:24.191Z,1.00
2022-08-17T16:53:17.164Z,1.00
2022-08-17T16:56:07.361Z,1.00
2022-08-17T16:58:56.361Z,1.00
2022-08-17T17:02:02.192Z,1.00
2022-08-17T17:04:57.688Z,1.00
2022-08-17T17:07:57.693Z,1.00
2022-08-17T17:10:49.495Z,1.00
2022-08-17T17:13:43.847Z,1.00
2022-08-17T17:16:39.148Z,1.00
2022-08-17T17:19:36.496Z,1.00
2022-08-17T17:22:30.754Z,1.00
2022-08-17T17:25:27.284Z,1.00
2022-08-17T17:28:26.391Z,1.00
2022-08-17T17:31:18.144Z,1.00
2022-08-17T17:34:11.560Z,1.00
2022-08-17T17:37:05.692Z,1.00
2022-08-17T17:39:57.645Z,1.00
2022-08-17T17:42:46.846Z,1.00
2022-08-17T17:45:43.823Z,1.00
2022-08-17T17:48:32.566Z,1.00
2022-08-17T17:52:01.991Z,1.00
2022-08-17T17:54:48.798Z,1.00
2022-08-17T17:57:55.850Z,1.00
2022-08-17T18:00:53.343Z,1.00
2022-08-17T18:03:59.009Z,1.00
2022-08-17T18:06:57.892Z,1.00
2022-08-17T18:10:05.540Z,1.00
2022-08-17T18:13:19.475Z,1.00
2022-08-17T18:16:14.116Z,1.00
2022-08-17T18:19:02.875Z,1.00
2022-08-17T18:21:56.186Z,1.00
2022-08-17T18:24:47.283Z,1.00
2022-08-17T18:27:39.943Z,1.00
2022-08-17T18:30:30.255Z,1.00
2022-08-17T18:33:26.910Z,1.00
2022-08-17T18:36:28.931Z,1.00
2022-08-17T18:39:21.096Z,1.00
2022-08-17T18:42:27.075Z,1.00
2022-08-17T18:45:34.458Z,1.00
2022-08-17T18:48:29.888Z,1.00
2022-08-17T18:51:41.577Z,1.00
2022-08-17T18:54:31.272Z,1.00
2022-08-17T18:57:31.225Z,1.00
2022-08-17T19:00:35.913Z,1.00
2022-08-17T19:03:26.892Z,1.00
2022-08-17T19:06:26.852Z,1.00
2022-08-17T19:09:34.268Z,1.00
2022-08-17T19:12:28.764Z,1.00
2022-08-17T19:15:24.368Z,1.00
2022-08-17T19:18:18.124Z,1.00
2022-08-17T19:21:11.477Z,1.00
2022-08-17T19:24:06.420Z,1.00
2022-08-17T19:26:59.163Z,1.00
2022-08-17T19:29:51.831Z,1.00
2022-08-17T19:32:42.337Z,1.00
2022-08-17T19:35:39.514Z,1.00
2022-08-17T19:38:41.620Z,1.00
2022-08-17T19:41:42.544Z,1.00
2022-08-17T19:44:43.382Z,1.00
2022-08-17T19:48:02.656Z,1.00
2022-08-17T19:50:54.887Z,1.00
2022-08-17T19:54:07.151Z,1.00
2022-08-17T19:57:03.533Z,1.00
2022-08-17T19:59:58.697Z,1.10
2022-08-17T20:02:55.227Z,1.00
2022-08-17T20:09:14.973Z,1.60
2022-08-17T20:12:09.010Z,2.30
2022-08-17T20:15:01.797Z,3.30
2022-08-17T20:17:51.577Z,4.40
2022-08-17T20:20:49.581Z,5.10
2022-08-17T20:23:54.346Z,4.80
2022-08-17T20:26:58.221Z,4.80
2022-08-17T20:30:10.590Z,7.00
2022-08-17T20:33:00.695Z,7.10
2022-08-17T20:36:05.504Z,8.30
2022-08-17T20:38:58.021Z,9.00
2022-08-17T20:42:05.894Z,10.20
2022-08-17T20:44:58.333Z,10.40
2022-08-17T20:48:18.706Z,10.20
2022-08-17T20:51:12.444Z,10.00
2022-08-17T20:54:22.497Z,9.60
2022-08-17T20:57:31.720Z,9.30
2022-08-17T21:00:43.540Z,9.70
2022-08-17T21:03:54.255Z,9.30
2022-08-17T21:07:33.160Z,9.30
2022-08-17T21:10:46.573Z,8.90
2022-08-17T21:13:58.113Z,9.30
2022-08-17T21:17:05.032Z,10.20
2022-08-17T21:20:17.390Z,11.40
2022-08-17T21:23:27.852Z,11.50
2022-08-17T21:26:30.682Z,11.70
2022-08-17T21:29:31.067Z,12.90
2022-08-17T21:32:30.580Z,14.60
2022-08-17T21:35:28.568Z,15.70
2022-08-17T21:38:19.558Z,15.80
2022-08-17T21:41:18.860Z,17.30
2022-08-17T21:44:29.116Z,18.50
2022-08-17T21:47:23.744Z,19.90
2022-08-17T21:50:18.813Z,22.10
2022-08-17T21:53:08.972Z,22.50
2022-08-17T21:55:57.814Z,21.90
2022-08-17T21:58:48.649Z,21.70
2022-08-17T22:01:43.092Z,23.80
2022-08-17T22:04:33.613Z,24.10
2022-08-17T22:07:36.589Z,23.80
2022-08-17T22:10:31.689Z,24.70
2022-08-17T22:13:24.214Z,25.40
2022-08-17T22:16:29.414Z,24.70
2022-08-17T22:19:21.182Z,25.10
2022-08-17T22:22:12.477Z,25.10
2022-08-17T22:25:06.041Z,25.20
2022-08-17T22:27:57.572Z,26.70
2022-08-17T22:31:01.679Z,27.30
2022-08-17T22:33:53.428Z,27.90
2022-08-17T22:36:44.154Z,30.10
2022-08-17T22:39:42.182Z,31.00
2022-08-17T22:42:31.357Z,32.40
2022-08-17T22:45:20.165Z,32.50
2022-08-17T22:48:09.466Z,33.00
2022-08-17T22:51:14.191Z,33.30
2022-08-17T22:54:35.156Z,34.60
2022-08-17T22:57:42.601Z,37.20
2022-08-17T23:00:34.814Z,36.70
2022-08-17T23:03:28.126Z,38.50
2022-08-17T23:06:16.927Z,40.00
2022-08-17T23:09:08.535Z,41.00
2022-08-17T23:11:59.084Z,41.80
2022-08-17T23:14:51.408Z,44.00
2022-08-17T23:17:42.091Z,46.10
2022-08-17T23:20:31.182Z,48.10
2022-08-17T23:23:23.578Z,47.60
2022-08-17T23:26:13.911Z,46.10
2022-08-17T23:29:04.459Z,45.80
2022-08-17T23:31:53.734Z,46.10
2022-08-17T23:34:44.316Z,45.90
2022-08-17T23:37:33.119Z,46.50
2022-08-17T23:40:22.517Z,46.00
2022-08-17T23:43:23.937Z,46.70
2022-08-17T23:46:14.252Z,46.80
2022-08-17T23:49:03.388Z,46.10
2022-08-17T23:51:53.749Z,46.30
2022-08-17T23:54:44.734Z,46.60
2022-08-17T23:57:35.954Z,47.20
